Time;durP1;ratioP1;P1;durP2;ratioP2;P2;SDS_P1;SDS_P2;PMS_P1;PMS_P2;Temp;Humidity;BMP_temperature;BMP_pressure;BME280_temperature;BME280_humidity;BME280_pressure;Samples;Min_cycle;Max_cycle;Signal;HPM_P1;HPM_P2
2021/05/09 00:00:01;;;;;;;2.67;2.50;;;12.90;90.10;;;;;;5025810;28;20258;-79
2021/05/09 00:02:28;;;;;;;2.53;2.37;;;12.90;90.20;;;;;;5025546;28;20681;-80
2021/05/09 00:04:54;;;;;;;2.50;2.40;;;12.90;90.30;;;;;;5025664;28;20258;-79
2021/05/09 00:07:20;;;;;;;2.70;2.50;;;13.00;90.40;;;;;;5025661;28;20622;-79
2021/05/09 00:09:46;;;;;;;2.50;2.40;;;12.90;90.40;;;;;;5025694;28;20216;-79
2021/05/09 00:12:14;;;;;;;2.57;2.30;;;12.90;90.20;;;;;;5025722;28;20208;-79
2021/05/09 00:14:40;;;;;;;3.03;2.83;;;12.90;90.40;;;;;;5025366;28;20208;-79
2021/05/09 00:17:06;;;;;;;2.53;2.33;;;12.90;90.70;;;;;;5025530;28;20511;-79
2021/05/09 00:19:32;;;;;;;2.70;2.50;;;12.90;90.60;;;;;;5025871;28;20261;-79
2021/05/09 00:21:58;;;;;;;2.20;2.10;;;12.90;90.60;;;;;;5024801;28;20217;-79
2021/05/09 00:24:25;;;;;;;2.77;2.10;;;12.90;90.80;;;;;;5026998;28;20224;-79
2021/05/09 00:26:51;;;;;;;2.70;2.50;;;12.90;90.80;;;;;;5028773;28;20285;-81
2021/05/09 00:29:18;;;;;;;2.27;2.17;;;12.90;90.60;;;;;;5029195;28;20581;-80
2021/05/09 00:31:44;;;;;;;2.90;2.37;;;12.90;90.60;;;;;;5028883;28;20633;-82
2021/05/09 00:34:10;;;;;;;2.30;2.20;;;12.90;90.70;;;;;;5029122;28;20208;-82
2021/05/09 00:36:36;;;;;;;2.50;2.30;;;12.90;90.80;;;;;;5028623;28;20204;-76
2021/05/09 00:39:03;;;;;;;2.53;2.33;;;12.90;91.30;;;;;;5028910;28;20216;-77
2021/05/09 00:41:29;;;;;;;2.87;2.57;;;12.90;91.20;;;;;;5028719;28;20208;-77
2021/05/09 00:43:55;;;;;;;2.33;2.23;;;12.90;91.20;;;;;;5028403;28;20255;-80
2021/05/09 00:46:22;;;;;;;2.37;2.17;;;12.90;91.00;;;;;;5028761;28;20230;-78
2021/05/09 00:48:48;;;;;;;2.70;2.50;;;12.90;91.40;;;;;;5028377;28;20205;-76
2021/05/09 00:51:15;;;;;;;2.30;2.20;;;12.90;91.50;;;;;;5028544;28;20213;-77
2021/05/09 00:53:43;;;;;;;2.40;2.20;;;12.90;91.50;;;;;;5028555;28;20220;-79
2021/05/09 00:56:12;;;;;;;2.60;2.40;;;12.90;91.50;;;;;;5028501;28;20295;-79
2021/05/09 00:58:42;;;;;;;2.70;2.50;;;12.90;91.30;;;;;;5028617;28;20299;-80
2021/05/09 01:01:09;;;;;;;3.43;2.60;;;12.90;91.30;;;;;;5028745;28;20212;-77
2021/05/09 01:03:38;;;;;;;2.57;2.40;;;12.90;91.10;;;;;;5028642;28;20209;-78
2021/05/09 01:06:08;;;;;;;2.40;2.30;;;12.90;91.30;;;;;;5027816;28;20725;-78
2021/05/09 01:08:36;;;;;;;2.47;2.37;;;12.80;91.80;;;;;;5028187;28;20209;-78
2021/05/09 01:11:02;;;;;;;2.67;2.30;;;12.90;91.50;;;;;;5028152;28;20667;-78
2021/05/09 01:13:28;;;;;;;2.97;2.77;;;12.90;91.30;;;;;;5028388;28;20208;-80
2021/05/09 01:15:55;;;;;;;2.70;2.50;;;12.90;91.70;;;;;;5028251;28;20241;-81
2021/05/09 01:18:21;;;;;;;3.70;2.50;;;12.90;91.90;;;;;;5028745;28;20217;-76
2021/05/09 01:20:48;;;;;;;2.60;2.40;;;12.90;92.00;;;;;;5027953;28;20213;-76
2021/05/09 01:23:14;;;;;;;3.17;2.27;;;12.90;92.00;;;;;;5027736;28;20573;-76
2021/05/09 01:25:41;;;;;;;2.73;2.53;;;12.90;91.90;;;;;;5027998;28;20289;-76
2021/05/09 01:28:08;;;;;;;2.53;2.40;;;12.90;91.70;;;;;;5027641;28;20225;-76
2021/05/09 01:30:34;;;;;;;3.80;2.77;;;12.90;91.80;;;;;;5027931;28;20242;-76
2021/05/09 01:33:00;;;;;;;2.33;2.23;;;12.90;91.90;;;;;;5027777;28;20205;-76
2021/05/09 01:35:26;;;;;;;2.60;2.40;;;12.90;91.90;;;;;;5026641;28;20212;-76
2021/05/09 01:37:53;;;;;;;2.70;2.50;;;12.90;92.00;;;;;;5027562;28;20233;-76
2021/05/09 01:40:19;;;;;;;2.90;2.40;;;12.90;92.10;;;;;;5027671;28;20227;-76
2021/05/09 01:42:46;;;;;;;3.10;2.90;;;12.90;92.20;;;;;;5027385;28;20674;-76
2021/05/09 01:45:12;;;;;;;2.67;2.20;;;12.90;92.40;;;;;;5027224;28;20640;-76
2021/05/09 01:47:39;;;;;;;2.30;2.20;;;12.90;92.30;;;;;;5027682;28;20212;-76
2021/05/09 01:50:08;;;;;;;2.57;2.47;;;12.90;92.20;;;;;;5027174;28;20577;-76
2021/05/09 01:52:34;;;;;;;2.97;2.73;;;12.90;92.40;;;;;;5027537;28;20285;-76
2021/05/09 01:55:02;;;;;;;2.50;2.40;;;12.80;92.30;;;;;;5027524;28;20213;-76
2021/05/09 01:57:28;;;;;;;2.83;2.67;;;12.80;92.60;;;;;;5027485;28;20213;-77
2021/05/09 01:59:54;;;;;;;2.50;2.40;;;12.80;92.70;;;;;;5027246;28;20209;-76
2021/05/09 02:02:20;;;;;;;2.60;2.50;;;12.80;92.70;;;;;;5027459;28;20247;-77
2021/05/09 02:04:46;;;;;;;2.70;2.57;;;12.80;92.90;;;;;;5027403;28;20273;-78
2021/05/09 02:07:12;;;;;;;3.70;2.40;;;12.80;92.70;;;;;;5027347;28;20209;-77
2021/05/09 02:09:38;;;;;;;2.87;2.60;;;12.80;93.00;;;;;;5027180;28;20659;-78
2021/05/09 02:12:06;;;;;;;2.90;2.70;;;12.80;92.90;;;;;;5026814;28;20212;-77
2021/05/09 02:14:32;;;;;;;4.10;2.40;;;12.80;92.90;;;;;;5026916;28;20718;-77
2021/05/09 02:16:59;;;;;;;2.67;2.47;;;12.80;93.20;;;;;;5027097;27;20269;-77
2021/05/09 02:19:25;;;;;;;2.67;2.40;;;12.80;93.30;;;;;;5027497;28;21253;-77
2021/05/09 02:21:51;;;;;;;2.87;2.57;;;12.80;93.20;;;;;;5027371;28;20200;-77
2021/05/09 02:24:17;;;;;;;2.57;2.37;;;12.80;93.30;;;;;;5026837;28;20208;-79
2021/05/09 02:26:43;;;;;;;3.07;2.60;;;12.80;93.50;;;;;;5027000;28;20220;-80
2021/05/09 02:29:10;;;;;;;2.60;2.40;;;12.80;93.50;;;;;;5027298;28;20273;-81
2021/05/09 02:31:36;;;;;;;2.50;2.30;;;12.80;93.70;;;;;;5026832;27;20201;-80
2021/05/09 02:34:03;;;;;;;2.90;2.30;;;12.80;93.90;;;;;;5027114;27;20215;-78
2021/05/09 02:36:29;;;;;;;3.33;2.50;;;12.80;93.90;;;;;;5026980;28;20239;-77
2021/05/09 02:38:55;;;;;;;2.47;2.37;;;12.80;94.20;;;;;;5026399;28;20282;-78
2021/05/09 02:41:21;;;;;;;2.50;2.40;;;12.80;94.10;;;;;;5026955;28;20621;-77
2021/05/09 02:43:48;;;;;;;2.60;2.40;;;12.80;94.20;;;;;;5027008;28;20220;-78
2021/05/09 02:46:15;;;;;;;3.33;2.30;;;12.80;94.10;;;;;;5026391;28;20236;-78
2021/05/09 02:48:41;;;;;;;3.20;2.90;;;12.80;94.10;;;;;;5026751;28;20209;-78
2021/05/09 02:51:07;;;;;;;2.60;2.40;;;12.80;94.50;;;;;;5026366;28;20694;-78
2021/05/09 02:53:33;;;;;;;2.63;2.50;;;12.80;94.70;;;;;;5026878;28;20208;-78
2021/05/09 02:56:00;;;;;;;4.30;2.50;;;12.80;94.70;;;;;;5026634;28;20209;-78
2021/05/09 02:58:26;;;;;;;2.70;2.60;;;12.80;94.90;;;;;;5026620;28;20206;-77
2021/05/09 03:00:52;;;;;;;2.80;2.60;;;12.80;95.10;;;;;;5026643;28;20220;-78
2021/05/09 03:03:19;;;;;;;2.47;2.27;;;12.80;94.80;;;;;;5026432;28;20209;-78
2021/05/09 03:05:46;;;;;;;2.70;2.50;;;12.70;94.90;;;;;;5026552;28;20240;-78
2021/05/09 03:08:12;;;;;;;3.00;2.37;;;12.70;95.00;;;;;;5026303;28;20205;-78
2021/05/09 03:10:38;;;;;;;3.60;2.40;;;12.70;95.10;;;;;;5026169;28;20698;-76
2021/05/09 03:13:04;;;;;;;2.43;2.33;;;12.70;95.30;;;;;;5026079;28;20213;-76
2021/05/09 03:15:30;;;;;;;2.30;2.17;;;12.70;95.30;;;;;;5026082;28;20230;-76
2021/05/09 03:17:56;;;;;;;2.50;2.40;;;12.70;95.40;;;;;;5025987;28;20607;-76
2021/05/09 03:20:23;;;;;;;4.07;2.53;;;12.60;95.60;;;;;;5026313;28;20208;-81
2021/05/09 03:22:49;;;;;;;2.47;2.27;;;12.60;95.80;;;;;;5026606;27;20213;-81
2021/05/09 03:25:16;;;;;;;2.63;2.43;;;12.60;96.00;;;;;;5026299;28;20228;-81
2021/05/09 03:27:42;;;;;;;2.70;2.50;;;12.60;96.00;;;;;;5026156;28;20298;-81
2021/05/09 03:30:09;;;;;;;2.73;2.20;;;12.60;95.90;;;;;;5026557;28;20201;-81
2021/05/09 03:32:35;;;;;;;3.53;2.40;;;12.60;96.70;;;;;;5026049;28;20678;-80
2021/05/09 03:35:01;;;;;;;2.20;2.00;;;12.50;96.60;;;;;;5026346;28;20201;-81
2021/05/09 03:37:28;;;;;;;2.67;2.47;;;12.50;96.50;;;;;;5055490;27;20229;-80
2021/05/09 03:39:54;;;;;;;3.23;2.57;;;12.50;96.60;;;;;;5028823;27;20233;-81
2021/05/09 03:42:20;;;;;;;3.23;2.47;;;12.50;96.80;;;;;;5026015;28;20528;-81
2021/05/09 03:44:46;;;;;;;2.57;2.37;;;12.50;96.80;;;;;;5026083;28;20229;-80
2021/05/09 03:47:14;;;;;;;2.30;2.20;;;12.50;96.70;;;;;;5025561;28;20205;-81
2021/05/09 03:49:40;;;;;;;2.50;2.40;;;12.40;96.90;;;;;;5025775;28;20209;-81
2021/05/09 03:52:06;;;;;;;2.50;2.30;;;12.50;96.70;;;;;;5025922;28;20262;-81
2021/05/09 03:54:33;;;;;;;2.30;2.20;;;12.50;96.80;;;;;;5026153;28;20248;-80
2021/05/09 03:56:59;;;;;;;2.53;2.30;;;12.40;97.00;;;;;;5025783;28;20213;-81
2021/05/09 03:59:26;;;;;;;2.20;2.10;;;12.40;96.90;;;;;;5025031;28;20209;-80
2021/05/09 04:01:52;;;;;;;2.40;2.30;;;12.40;96.90;;;;;;5025793;28;20549;-77
2021/05/09 04:04:18;;;;;;;2.10;2.00;;;12.40;96.90;;;;;;5025097;28;20208;-75
2021/05/09 04:06:44;;;;;;;2.73;2.23;;;12.50;97.00;;;;;;5025228;28;20814;-77
2021/05/09 04:09:10;;;;;;;2.70;2.50;;;12.40;97.00;;;;;;5025416;28;20244;-78
2021/05/09 04:11:37;;;;;;;2.63;2.10;;;12.40;97.10;;;;;;5025835;28;20213;-78
2021/05/09 04:14:04;;;;;;;2.10;2.00;;;12.40;97.30;;;;;;5025507;28;20205;-78
2021/05/09 04:16:30;;;;;;;2.60;2.40;;;12.40;97.40;;;;;;5025538;28;20209;-78
2021/05/09 04:18:56;;;;;;;2.30;2.20;;;12.40;97.50;;;;;;5025573;28;20205;-78
2021/05/09 04:21:22;;;;;;;2.30;2.20;;;12.40;97.60;;;;;;5025109;28;20675;-78
2021/05/09 04:23:48;;;;;;;2.10;2.00;;;12.40;97.70;;;;;;5025394;28;20219;-78
2021/05/09 04:26:14;;;;;;;2.40;2.30;;;12.40;97.70;;;;;;5025340;28;20236;-78
2021/05/09 04:28:41;;;;;;;2.37;2.00;;;12.30;97.90;;;;;;5025320;28;20220;-78
2021/05/09 04:31:07;;;;;;;2.33;2.20;;;12.40;98.10;;;;;;5025462;28;20209;-77
2021/05/09 04:33:33;;;;;;;2.50;2.40;;;12.30;98.20;;;;;;5025317;28;20565;-77
2021/05/09 04:35:59;;;;;;;4.87;2.20;;;12.30;98.40;;;;;;5025221;28;20209;-77
2021/05/09 04:38:26;;;;;;;2.20;2.00;;;12.40;98.70;;;;;;5024968;28;20245;-77
2021/05/09 04:40:52;;;;;;;3.37;2.40;;;12.40;98.80;;;;;;5025075;28;20205;-75
2021/05/09 04:43:19;;;;;;;2.20;2.10;;;12.40;98.50;;;;;;5024990;28;20641;-76
2021/05/09 04:45:48;;;;;;;2.10;2.00;;;12.40;98.90;;;;;;5025247;28;20262;-76
2021/05/09 04:48:15;;;;;;;2.30;2.20;;;12.40;99.00;;;;;;5024926;28;20213;-76
2021/05/09 04:50:41;;;;;;;2.23;2.13;;;12.40;98.80;;;;;;5025418;28;20216;-76
2021/05/09 04:53:22;;;;;;;2.10;2.00;;;12.40;98.70;;;;;;5024946;28;20236;-76
2021/05/09 04:55:48;;;;;;;2.70;2.47;;;12.40;99.40;;;;;;5025063;28;20204;-77
2021/05/09 04:58:14;;;;;;;1.87;1.77;;;12.40;99.30;;;;;;5024915;28;20209;-77
2021/05/09 05:00:40;;;;;;;2.30;2.20;;;12.40;99.80;;;;;;5025137;28;20212;-76
2021/05/09 05:03:07;;;;;;;2.50;2.30;;;12.40;99.90;;;;;;5032832;28;20204;-75
2021/05/09 05:05:33;;;;;;;2.27;2.17;;;12.40;99.90;;;;;;5035176;28;20227;-77
2021/05/09 05:08:00;;;;;;;2.30;2.10;;;12.50;99.90;;;;;;5032331;28;20575;-74
2021/05/09 05:10:26;;;;;;;2.00;1.90;;;12.50;99.90;;;;;;5036257;28;20979;-76
2021/05/09 05:12:52;;;;;;;2.23;2.07;;;12.50;99.90;;;;;;5036972;28;20197;-77
2021/05/09 05:15:18;;;;;;;3.93;2.03;;;12.60;99.90;;;;;;5037673;28;20575;-76
2021/05/09 05:17:44;;;;;;;3.03;2.37;;;12.70;99.90;;;;;;5035929;28;20204;-77
2021/05/09 05:20:12;;;;;;;2.17;2.03;;;12.80;99.90;;;;;;5039011;28;20253;-76
2021/05/09 05:22:38;;;;;;;2.63;2.20;;;12.80;99.90;;;;;;5037693;28;20200;-76
2021/05/09 05:25:05;;;;;;;2.30;2.17;;;12.90;99.90;;;;;;5038172;28;20615;-76
2021/05/09 05:27:31;;;;;;;2.40;2.20;;;12.90;99.90;;;;;;5035789;28;20636;-76
2021/05/09 05:29:57;;;;;;;2.13;2.03;;;12.90;99.90;;;;;;5038523;28;20200;-76
2021/05/09 05:32:23;;;;;;;2.60;2.40;;;12.90;99.90;;;;;;5040800;28;20200;-76
2021/05/09 05:34:49;;;;;;;2.43;2.23;;;12.90;99.90;;;;;;5037469;28;20219;-76
2021/05/09 05:37:16;;;;;;;2.23;2.07;;;12.90;99.90;;;;;;5043385;28;20204;-77
2021/05/09 05:39:42;;;;;;;3.30;2.40;;;12.90;99.90;;;;;;5052398;27;20708;-76
2021/05/09 05:42:09;;;;;;;2.23;2.13;;;12.90;99.90;;;;;;5055332;28;20219;-77
2021/05/09 05:44:35;;;;;;;1.83;1.73;;;12.90;99.90;;;;;;5031674;28;20340;-77
2021/05/09 05:47:01;;;;;;;2.50;2.30;;;13.00;99.90;;;;;;5046391;28;20714;-77
2021/05/09 05:49:27;;;;;;;2.80;2.23;;;13.00;99.90;;;;;;5049179;27;20327;-76
2021/05/09 05:51:53;;;;;;;1.90;1.80;;;13.00;99.90;;;;;;5066386;27;20264;-76
2021/05/09 05:54:20;;;;;;;1.87;1.77;;;13.00;99.90;;;;;;5046931;28;20708;-76
2021/05/09 05:56:46;;;;;;;2.30;2.10;;;13.00;99.90;;;;;;5040119;28;20239;-76
2021/05/09 05:59:13;;;;;;;2.47;2.27;;;13.10;99.90;;;;;;5035725;28;20205;-77
2021/05/09 06:01:39;;;;;;;2.13;2.03;;;13.10;99.90;;;;;;5044538;27;20838;-76
2021/05/09 06:04:06;;;;;;;2.80;2.60;;;13.10;99.90;;;;;;5044031;28;20212;-76
2021/05/09 06:06:32;;;;;;;3.30;3.10;;;13.10;99.90;;;;;;5039177;28;20235;-76
2021/05/09 06:08:58;;;;;;;2.20;2.10;;;13.20;99.90;;;;;;5032553;28;20240;-77
2021/05/09 06:11:25;;;;;;;3.90;3.60;;;13.20;99.90;;;;;;5033457;28;20230;-76
2021/05/09 06:13:52;;;;;;;3.03;2.83;;;13.30;99.90;;;;;;5035340;28;20230;-76
2021/05/09 06:16:18;;;;;;;2.47;2.30;;;13.30;99.90;;;;;;5031800;28;20204;-76
2021/05/09 06:18:44;;;;;;;2.77;2.57;;;13.40;99.90;;;;;;5043379;28;20646;-76
2021/05/09 06:21:10;;;;;;;2.70;2.50;;;13.40;99.90;;;;;;5036005;28;20200;-77
2021/05/09 06:23:36;;;;;;;2.87;2.07;;;13.50;99.90;;;;;;5035089;28;20662;-77
2021/05/09 06:26:02;;;;;;;2.23;2.03;;;13.50;99.90;;;;;;5027575;28;20258;-78
2021/05/09 06:28:30;;;;;;;3.77;2.10;;;13.50;99.90;;;;;;5025201;28;20311;-77
2021/05/09 06:30:56;;;;;;;2.40;2.20;;;13.60;99.90;;;;;;5025506;28;20209;-77
2021/05/09 06:33:22;;;;;;;2.40;2.30;;;13.60;99.90;;;;;;5025203;28;20204;-77
2021/05/09 06:35:49;;;;;;;2.50;2.30;;;13.70;99.90;;;;;;5024975;28;20624;-77
2021/05/09 06:38:15;;;;;;;2.23;2.10;;;13.70;99.90;;;;;;5024283;28;20245;-77
2021/05/09 06:40:43;;;;;;;2.90;2.40;;;13.80;99.90;;;;;;5024569;28;20209;-77
2021/05/09 06:43:09;;;;;;;43.83;39.23;;;13.80;99.90;;;;;;5024628;27;20798;-76
2021/05/09 06:45:36;;;;;;;21.77;18.63;;;13.80;99.90;;;;;;5027910;28;20224;-76
2021/05/09 06:48:05;;;;;;;10.90;9.80;;;13.90;99.90;;;;;;5038812;28;20211;-77
2021/05/09 06:50:33;;;;;;;23.70;21.17;;;14.00;99.90;;;;;;5044428;28;20570;-77
2021/05/09 06:53:00;;;;;;;11.30;9.67;;;13.90;99.90;;;;;;5044536;28;20261;-75
2021/05/09 06:55:26;;;;;;;2.33;2.23;;;14.00;99.90;;;;;;5044296;28;20200;-75
2021/05/09 06:57:53;;;;;;;2.93;2.20;;;14.10;99.90;;;;;;5044449;28;20207;-77
2021/05/09 07:00:20;;;;;;;2.07;1.70;;;14.20;99.90;;;;;;5037225;28;20237;-77
2021/05/09 07:02:48;;;;;;;1.90;1.80;;;14.20;99.90;;;;;;5032676;28;20265;-77
2021/05/09 07:05:14;;;;;;;2.07;1.97;;;14.40;99.90;;;;;;5026724;28;20274;-77
2021/05/09 07:07:51;;;;;;;1.70;1.60;;;14.40;99.90;;;;;;5027158;28;20685;-77
2021/05/09 07:10:17;;;;;;;2.00;1.90;;;14.50;99.90;;;;;;5035149;28;20196;-77
2021/05/09 07:12:44;;;;;;;1.73;1.63;;;14.50;99.90;;;;;;5030631;28;20208;-79
2021/05/09 07:15:11;;;;;;;1.73;1.63;;;14.60;99.90;;;;;;5025993;28;21044;-78
2021/05/09 07:17:38;;;;;;;59.97;39.87;;;14.60;99.90;;;;;;5043910;28;20650;-78
2021/05/09 07:20:07;;;;;;;55.90;35.57;;;14.70;99.90;;;;;;5045310;28;20260;-77
2021/05/09 07:22:36;;;;;;;50.63;37.17;;;14.70;99.90;;;;;;5045190;28;20207;-77
2021/05/09 07:25:03;;;;;;;3.97;3.60;;;14.80;99.90;;;;;;5044924;28;20234;-77
2021/05/09 07:27:29;;;;;;;25.97;23.60;;;14.80;99.90;;;;;;5045845;28;20591;-77
2021/05/09 07:29:56;;;;;;;4.30;4.00;;;15.00;99.90;;;;;;5046097;28;20208;-77
2021/05/09 07:32:22;;;;;;;3.67;3.47;;;15.00;99.90;;;;;;5045897;28;20565;-77
2021/05/09 07:34:48;;;;;;;1.50;1.33;;;15.00;99.90;;;;;;5044868;28;20212;-77
2021/05/09 07:37:15;;;;;;;1.73;1.63;;;15.20;99.90;;;;;;5045850;28;20614;-77
2021/05/09 07:39:41;;;;;;;1.60;1.50;;;15.20;99.90;;;;;;5045559;28;20232;-77
2021/05/09 07:42:07;;;;;;;1.40;1.40;;;15.30;99.90;;;;;;5045479;28;20683;-77
2021/05/09 07:44:33;;;;;;;5.17;4.77;;;15.40;99.90;;;;;;5045754;28;20208;-77
2021/05/09 07:46:59;;;;;;;6.10;5.70;;;15.30;99.90;;;;;;5045502;28;20236;-77
2021/05/09 07:49:25;;;;;;;3.60;2.03;;;15.40;99.90;;;;;;5046063;28;20243;-77
2021/05/09 07:51:51;;;;;;;1.30;1.30;;;15.30;99.90;;;;;;5045353;28;20729;-77
2021/05/09 07:54:18;;;;;;;1.90;1.50;;;15.40;99.90;;;;;;5045693;28;20212;-78
2021/05/09 07:56:44;;;;;;;1.40;1.30;;;15.50;99.90;;;;;;5045889;28;20215;-77
2021/05/09 07:59:10;;;;;;;5.07;4.60;;;15.70;99.90;;;;;;5045317;28;20256;-77
2021/05/09 08:01:37;;;;;;;3.97;3.67;;;15.60;99.90;;;;;;5045738;28;20200;-78
2021/05/09 08:04:04;;;;;;;2.13;2.03;;;15.70;99.90;;;;;;5045628;28;20208;-78
2021/05/09 08:06:30;;;;;;;2.87;1.70;;;15.70;99.90;;;;;;5045076;28;20224;-77
2021/05/09 08:08:56;;;;;;;1.50;1.40;;;15.70;99.90;;;;;;5045405;28;20590;-77
2021/05/09 08:11:23;;;;;;;1.50;1.40;;;15.90;99.90;;;;;;5045437;28;20200;-77
2021/05/09 08:13:49;;;;;;;1.40;1.40;;;15.90;99.90;;;;;;5045436;28;20200;-78
2021/05/09 08:16:16;;;;;;;1.47;1.33;;;15.80;99.90;;;;;;5045108;28;20204;-77
2021/05/09 08:18:42;;;;;;;1.80;1.33;;;15.80;99.90;;;;;;5045423;28;20275;-78
2021/05/09 08:21:08;;;;;;;8.93;7.73;;;15.70;99.90;;;;;;5045059;28;20666;-77
2021/05/09 08:23:37;;;;;;;40.27;18.80;;;15.80;99.90;;;;;;5045166;28;20719;-77
2021/05/09 08:26:04;;;;;;;27.60;19.33;;;15.70;99.90;;;;;;5045354;28;20239;-78
2021/05/09 08:28:31;;;;;;;18.20;12.43;;;15.80;99.90;;;;;;5045132;28;20228;-77
2021/05/09 08:30:57;;;;;;;25.03;15.90;;;16.00;99.90;;;;;;5045404;28;20664;-78
2021/05/09 08:33:23;;;;;;;35.50;25.13;;;16.00;99.90;;;;;;5045448;28;20290;-78
2021/05/09 08:35:49;;;;;;;37.30;29.07;;;16.00;99.90;;;;;;5045025;28;20802;-78
2021/05/09 08:38:15;;;;;;;19.63;17.10;;;16.00;99.90;;;;;;5044919;28;20240;-77
2021/05/09 08:40:41;;;;;;;17.20;15.60;;;16.00;99.90;;;;;;5045081;28;20254;-78
2021/05/09 08:43:08;;;;;;;7.30;6.70;;;16.00;99.90;;;;;;5045149;28;20211;-77
2021/05/09 08:45:35;;;;;;;2.30;2.20;;;16.10;99.90;;;;;;5046954;28;20246;-78
2021/05/09 08:48:01;;;;;;;1.40;1.30;;;16.10;99.90;;;;;;5048659;28;20218;-78
2021/05/09 08:50:28;;;;;;;1.50;1.20;;;16.20;99.90;;;;;;5048554;28;20204;-77
2021/05/09 08:52:55;;;;;;;1.37;1.27;;;16.30;99.90;;;;;;5048367;28;20212;-77
2021/05/09 08:55:24;;;;;;;3.77;1.30;;;16.30;99.90;;;;;;5048237;27;20630;-77
2021/05/09 08:57:51;;;;;;;1.63;1.30;;;16.40;99.90;;;;;;5048608;27;20653;-77
2021/05/09 09:00:18;;;;;;;1.23;1.10;;;16.40;99.90;;;;;;5048182;28;20208;-77
2021/05/09 09:02:45;;;;;;;1.93;1.40;;;16.50;99.90;;;;;;5048706;28;20207;-77
2021/05/09 09:05:13;;;;;;;1.87;1.30;;;16.60;99.90;;;;;;5048007;28;20224;-78
2021/05/09 09:07:44;;;;;;;1.33;1.23;;;16.70;99.90;;;;;;5048284;28;20204;-78
2021/05/09 09:10:12;;;;;;;2.40;0.93;;;16.90;99.90;;;;;;5048489;28;20219;-77
2021/05/09 09:12:38;;;;;;;1.67;1.23;;;16.90;99.90;;;;;;5036945;28;20205;-77
2021/05/09 09:15:05;;;;;;;1.10;1.10;;;17.00;99.90;;;;;;5028430;28;20216;-78
2021/05/09 09:17:32;;;;;;;1.53;1.30;;;17.10;99.90;;;;;;5028055;28;20236;-78
2021/05/09 09:20:08;;;;;;;1.43;1.30;;;17.10;99.90;;;;;;5028048;28;20299;-78
2021/05/09 09:22:56;;;;;;;1.03;1.03;;;17.20;99.90;;;;;;5027877;28;20579;-77
2021/05/09 09:25:25;;;;;;;1.27;1.13;;;17.20;99.90;;;;;;5027817;28;20285;-77
2021/05/09 09:27:52;;;;;;;1.03;1.03;;;17.30;99.90;;;;;;5028118;28;20239;-77
2021/05/09 09:30:22;;;;;;;1.03;1.03;;;17.30;99.90;;;;;;5027694;28;20215;-77
2021/05/09 09:33:15;;;;;;;3.47;1.30;;;17.40;99.90;;;;;;5027958;28;20257;-77
2021/05/09 09:35:43;;;;;;;2.30;1.27;;;17.40;99.90;;;;;;5027846;28;20309;-77
2021/05/09 09:38:27;;;;;;;2.27;1.83;;;17.50;99.90;;;;;;5027614;28;20241;-78
2021/05/09 09:41:12;;;;;;;1.73;1.63;;;17.60;99.90;;;;;;5027752;28;20197;-78
2021/05/09 09:43:39;;;;;;;1.80;0.97;;;17.60;99.90;;;;;;5027750;28;20208;-77
2021/05/09 09:46:24;;;;;;;2.17;1.23;;;17.70;99.90;;;;;;5028315;28;20240;-78
2021/05/09 09:48:50;;;;;;;1.63;1.00;;;17.80;99.90;;;;;;5027682;28;20700;-77
2021/05/09 09:51:17;;;;;;;1.10;1.00;;;17.80;99.90;;;;;;5027665;28;20340;-77
2021/05/09 09:53:44;;;;;;;1.70;1.30;;;17.90;99.90;;;;;;5027958;28;21095;-77
2021/05/09 09:56:11;;;;;;;1.00;1.00;;;18.00;99.90;;;;;;5026764;28;20205;-78
2021/05/09 09:58:43;;;;;;;1.00;0.90;;;18.10;99.90;;;;;;5028011;28;20223;-77
2021/05/09 10:01:10;;;;;;;0.97;0.97;;;18.20;99.90;;;;;;5027338;28;20225;-77
2021/05/09 10:03:36;;;;;;;1.30;1.20;;;18.20;99.90;;;;;;5027559;28;20209;-77
2021/05/09 10:06:03;;;;;;;0.83;0.83;;;18.30;99.90;;;;;;5027280;28;20240;-78
2021/05/09 10:08:32;;;;;;;1.30;1.00;;;18.40;99.90;;;;;;5027556;28;20657;-78
2021/05/09 10:11:00;;;;;;;1.47;1.17;;;18.60;99.90;;;;;;5027697;28;20257;-78
2021/05/09 10:13:26;;;;;;;2.77;1.13;;;18.60;99.90;;;;;;5027030;28;20210;-78
2021/05/09 10:15:54;;;;;;;1.77;1.00;;;18.80;99.90;;;;;;5027210;28;20266;-78
2021/05/09 10:18:20;;;;;;;1.17;0.90;;;18.80;99.90;;;;;;5026905;28;20205;-78
2021/05/09 10:20:47;;;;;;;1.47;1.10;;;19.00;99.90;;;;;;5026900;28;20675;-78
2021/05/09 10:23:14;;;;;;;1.73;1.13;;;19.10;99.80;;;;;;5027336;28;20242;-77
2021/05/09 10:25:46;;;;;;;1.00;1.00;;;19.20;99.90;;;;;;5027291;28;20270;-78
2021/05/09 10:28:14;;;;;;;1.07;1.00;;;19.30;99.80;;;;;;5026693;28;20619;-78
2021/05/09 10:30:49;;;;;;;1.47;0.90;;;19.30;99.90;;;;;;5027171;28;20235;-78
2021/05/09 10:33:47;;;;;;;0.87;0.87;;;19.40;99.90;;;;;;5027015;28;20218;-78
2021/05/09 10:36:46;;;;;;;0.90;0.90;;;19.50;99.30;;;;;;5026753;28;20607;-78
2021/05/09 10:39:15;;;;;;;1.57;1.00;;;19.70;99.00;;;;;;5047152;28;20247;-78
2021/05/09 10:42:18;;;;;;;1.30;1.20;;;19.80;99.10;;;;;;5047055;28;20277;-78
2021/05/09 10:44:50;;;;;;;1.00;1.00;;;19.90;99.20;;;;;;5032482;28;20219;-78
2021/05/09 10:47:31;;;;;;;1.10;1.10;;;20.00;99.50;;;;;;5026755;28;20599;-78
2021/05/09 10:50:26;;;;;;;1.57;1.10;;;20.00;99.20;;;;;;5026773;28;20197;-78
2021/05/09 10:52:53;;;;;;;1.50;1.40;;;20.10;98.50;;;;;;5026612;28;20646;-77
2021/05/09 10:55:42;;;;;;;0.83;0.83;;;20.20;98.20;;;;;;5026795;28;20209;-78
2021/05/09 10:58:10;;;;;;;0.90;0.90;;;20.30;97.70;;;;;;5026970;28;20235;-78
2021/05/09 11:01:13;;;;;;;0.80;0.80;;;20.40;97.70;;;;;;5026838;28;20217;-77
2021/05/09 11:03:51;;;;;;;3.00;1.00;;;20.60;98.00;;;;;;5046565;28;20261;-77
2021/05/09 11:06:18;;;;;;;1.55;1.30;;;20.70;97.90;;;;;;5046301;28;20224;-77
2021/05/09 11:09:04;;;;;;;1.23;1.20;;;20.80;98.40;;;;;;5035425;28;20952;-77
2021/05/09 11:12:01;;;;;;;2.13;0.97;;;20.90;97.40;;;;;;5026129;28;20210;-77
2021/05/09 11:14:33;;;;;;;1.30;1.20;;;21.10;97.20;;;;;;5026337;28;20209;-78
2021/05/09 11:17:02;;;;;;;1.03;1.00;;;21.20;97.20;;;;;;5026555;28;20201;-78
2021/05/09 11:19:44;;;;;;;2.03;1.20;;;21.40;97.00;;;;;;5026323;28;20224;-77
2021/05/09 11:22:11;;;;;;;1.10;1.10;;;21.50;96.40;;;;;;5025987;28;20193;-77
2021/05/09 11:24:39;;;;;;;1.00;1.00;;;21.60;96.60;;;;;;5026281;28;20212;-77
2021/05/09 11:27:08;;;;;;;1.30;1.10;;;21.80;95.90;;;;;;5026064;28;20263;-78
2021/05/09 11:29:39;;;;;;;1.58;1.48;;;21.90;95.70;;;;;;5025873;28;20249;-77
2021/05/09 11:32:08;;;;;;;1.45;1.40;;;22.00;94.90;;;;;;5026436;28;20200;-77
2021/05/09 11:34:35;;;;;;;1.17;0.98;;;22.20;94.90;;;;;;5025906;28;20209;-77
2021/05/09 11:37:01;;;;;;;1.77;1.20;;;22.30;95.10;;;;;;5026253;28;20220;-78
2021/05/09 11:39:38;;;;;;;1.13;1.02;;;22.40;94.30;;;;;;5025587;28;20240;-79
2021/05/09 11:42:08;;;;;;;1.27;1.17;;;22.40;94.30;;;;;;5025854;28;20196;-77
2021/05/09 11:44:37;;;;;;;1.00;1.00;;;22.50;94.00;;;;;;5025661;28;20288;-77
2021/05/09 11:47:05;;;;;;;1.27;1.17;;;22.60;93.60;;;;;;5025705;28;20240;-77
2021/05/09 11:49:34;;;;;;;2.92;1.20;;;22.80;93.20;;;;;;5025886;28;20209;-77
2021/05/09 11:52:02;;;;;;;1.23;1.13;;;22.80;93.90;;;;;;5026102;28;20217;-77
2021/05/09 11:54:30;;;;;;;1.10;1.10;;;23.00;93.70;;;;;;5025757;28;20265;-77
2021/05/09 11:56:58;;;;;;;0.80;0.80;;;23.20;93.40;;;;;;5025933;28;20562;-77
2021/05/09 11:59:41;;;;;;;0.80;0.80;;;23.30;92.90;;;;;;5025615;28;20201;-77
2021/05/09 12:02:31;;;;;;;0.85;0.85;;;23.40;92.10;;;;;;5025769;28;20279;-77
2021/05/09 12:05:00;;;;;;;8.73;1.58;;;23.40;92.60;;;;;;5025538;28;20589;-78
2021/05/09 12:07:27;;;;;;;1.10;1.00;;;23.50;92.70;;;;;;5025720;28;20251;-77
2021/05/09 12:09:59;;;;;;;1.55;0.98;;;23.60;92.20;;;;;;5025557;28;20269;-78
2021/05/09 12:12:28;;;;;;;2.50;0.90;;;23.60;92.30;;;;;;5025758;28;20189;-77
2021/05/09 12:14:55;;;;;;;1.27;0.75;;;23.70;92.10;;;;;;5025788;28;20227;-77
2021/05/09 12:17:23;;;;;;;1.02;1.02;;;23.80;90.10;;;;;;5025489;28;20213;-78
2021/05/09 12:19:50;;;;;;;3.20;0.80;;;23.80;90.00;;;;;;5026229;28;20269;-78
2021/05/09 12:22:16;;;;;;;2.05;0.80;;;23.90;90.70;;;;;;5028896;28;20201;-76
2021/05/09 12:24:47;;;;;;;0.88;0.88;;;24.00;89.10;;;;;;5029095;28;20211;-78
2021/05/09 12:27:13;;;;;;;0.77;0.77;;;24.10;89.70;;;;;;5028632;28;20611;-77
2021/05/09 12:29:42;;;;;;;0.80;0.80;;;24.20;85.50;;;;;;5028838;28;20213;-78
2021/05/09 12:32:17;;;;;;;2.50;0.70;;;24.30;81.30;;;;;;5028996;28;20277;-78
2021/05/09 12:34:59;;;;;;;1.33;1.10;;;24.50;80.90;;;;;;5028616;28;20219;-78
2021/05/09 12:37:28;;;;;;;1.75;0.93;;;24.80;79.00;;;;;;5028629;28;20207;-77
2021/05/09 12:40:16;;;;;;;1.35;1.00;;;24.90;80.20;;;;;;5028738;28;20229;-77
2021/05/09 12:42:56;;;;;;;0.85;0.85;;;24.90;79.70;;;;;;5028778;28;20197;-77
2021/05/09 12:45:35;;;;;;;1.75;0.70;;;25.00;82.30;;;;;;5028660;28;20212;-77
2021/05/09 12:48:08;;;;;;;2.45;2.35;;;25.00;80.70;;;;;;5028962;28;20193;-77
2021/05/09 12:51:00;;;;;;;1.88;1.77;;;25.20;75.10;;;;;;5028429;28;20682;-77